• Join FlightAware (Why Join?)
  • Login
  • US Flag 
02:53PM EDT


 

Airport Tracker/Info


-or-


 

Live Flight TrackerFlight Track Log ✈ EJA922 ✈ 10-Jul-2013 ✈ KCRQ - KLGB

Flight Track Log - Related Links

Times and Time Zones

All times are in EDT time to prevent confusion due to time zone crossing. See the EJA922 flight status page for this flight to view local times or setup timezone preferences in your user account.

Time Position Orientation Groundspeed Altitude Reporting Facility
EDT Latitude Longitude Course Direction KTS MPH feet Rate Location/Type
02:32PM 33.1167 -117.3167 314° West 188 216 2,100  Level Southern California TRACON
02:33PM 33.1167 -117.3833 270° West 221 254 5,700 3,120 Climbing Southern California TRACON
02:35PM 33.1039 -117.4753 261° West 227 261 9,300 1,860 Climbing Los Angeles Center
02:36PM 33.1006 -117.5597 267° West 251 289 10,000 420 Climbing Los Angeles Center
02:37PM 33.1333 -117.6167 305° West 249 287 10,100  Climbing Southern California TRACON
02:37PM 33.1667 -117.6833 301° West 247 284 10,100 -480 Level Southern California TRACON
02:38PM 33.3383 -117.5435 314° West  Level FlightAware Approximate
02:38PM 33.2000 -117.7500 301° West 246 283 9,300  Level Southern California TRACON
02:39PM 33.2333 -117.8167 301° West 233 268 8,200 -1,140 Descending Southern California TRACON
02:40PM 33.2833 -117.8833 312° West 227 261 7,100 -1,440 Descending Southern California TRACON
02:41PM 33.3167 -117.9333 309° West 235 270 5,300 -1,980 Descending Southern California TRACON
02:42PM 33.3667 -117.9833 320° Northwest 223 257 3,200 -1,560 Descending Southern California TRACON
02:43PM 33.3925 -117.9864 354° North 222 255 3,000 -120 Descending Los Angeles Center
02:44PM 33.4675 -118.0117 344° North 227 261 3,100  Climbing Los Angeles Center
02:45PM 33.5306 -118.0344 343° North 233 268 3,000 -60 Descending Los Angeles Center
02:46PM 33.5944 -118.0578 343° North 237 273 3,000 -660 Level Los Angeles Center
02:47PM 33.6536 -118.0464 North 226 260 1,700 -660 Descending Los Angeles Center
02:48PM 33.7028 -118.0247 20° North 204 235 1,700 -60 Level Los Angeles Center
02:49PM 33.7497 -118.0664 324° Northwest 206 237 1,600 -420 Descending Los Angeles Center
02:50PM 33.7850 -118.1131 312° West 198 228 900 -720 Descending Los Angeles Center
02:51PM 33.8131 -118.1458 316° Northwest 165 190 100 -780 Descending Los Angeles Center
02:53PM 33.8167 -118.1500 335° Northwest  Level FlightAware Approximate
03:00PM 33.8177 -118.1517 335° Northwest  Level Estimated